Time;durP1;ratioP1;P1;durP2;ratioP2;P2;SDS_P1;SDS_P2;PMS_P1;PMS_P2;Temp;Humidity;BMP_temperature;BMP_pressure;BME280_temperature;BME280_humidity;BME280_pressure;Samples;Min_cycle;Max_cycle;Signal;HPM_P1;HPM_P2
2023/11/22 06:00:45;;;;;;;7.05;4.07;;;5.60;75.90;;;;;;4996235;23;20028;31
2023/11/22 06:02:48;;;;;;;7.65;4.13;;;5.50;76.40;;;;;;4053929;29;20049;-78
2023/11/22 06:04:50;;;;;;;7.45;4.15;;;5.50;76.40;;;;;;4055798;29;20454;-81
2023/11/22 06:06:52;;;;;;;7.22;4.20;;;5.50;76.30;;;;;;4055465;29;20473;-79
2023/11/22 06:08:54;;;;;;;8.23;4.53;;;5.40;77.20;;;;;;4056209;29;20559;-79
2023/11/22 06:10:57;;;;;;;7.38;4.13;;;5.40;76.20;;;;;;4067838;29;20048;-79
2023/11/22 06:12:59;;;;;;;6.75;3.97;;;5.40;76.70;;;;;;4070914;29;20056;-79
2023/11/22 06:15:00;;;;;;;9.88;4.47;;;5.40;76.90;;;;;;4058191;29;20053;-80
2023/11/22 06:17:03;;;;;;;7.43;4.57;;;5.50;75.80;;;;;;4055146;29;20055;-80
2023/11/22 06:19:07;;;;;;;6.80;3.85;;;5.30;76.80;;;;;;4055155;29;20095;-79
2023/11/22 06:21:09;;;;;;;7.38;4.05;;;5.40;76.90;;;;;;4055192;29;20044;-77
2023/11/22 06:23:11;;;;;;;7.35;4.13;;;5.30;75.70;;;;;;4055478;29;20080;-77
2023/11/22 06:25:13;;;;;;;7.07;4.35;;;5.30;76.10;;;;;;4055047;29;20052;-76
2023/11/22 06:27:15;;;;;;;7.63;4.20;;;5.50;77.20;;;;;;4068458;29;20056;-79
2023/11/22 06:29:16;;;;;;;6.47;4.03;;;5.50;76.20;;;;;;4071205;29;20044;-79
2023/11/22 06:31:18;;;;;;;5.70;3.72;;;5.50;75.50;;;;;;4071225;29;20052;-77
2023/11/22 06:33:20;;;;;;;6.78;4.22;;;5.50;75.40;;;;;;4074484;29;20059;-74
2023/11/22 06:35:23;;;;;;;7.13;4.10;;;5.40;76.00;;;;;;4078538;29;20048;-78
2023/11/22 06:37:25;;;;;;;7.13;4.03;;;5.40;76.00;;;;;;4079089;29;20115;-78
2023/11/22 06:39:27;;;;;;;8.60;4.32;;;5.40;76.40;;;;;;4073301;29;20044;-79
2023/11/22 06:41:28;;;;;;;7.72;4.57;;;5.40;76.00;;;;;;4071473;29;20048;-78
2023/11/22 06:43:30;;;;;;;6.90;4.38;;;5.30;76.50;;;;;;4071111;29;20052;-79
2023/11/22 06:45:32;;;;;;;7.05;4.20;;;5.40;76.80;;;;;;4071371;29;20081;-74
2023/11/22 06:47:34;;;;;;;6.70;4.30;;;5.40;76.20;;;;;;4071586;29;20103;-77
2023/11/22 06:49:36;;;;;;;7.97;4.40;;;5.50;76.70;;;;;;4072531;29;20052;-78
2023/11/22 06:51:39;;;;;;;7.07;3.65;;;5.50;75.80;;;;;;4071129;29;20486;-78
2023/11/22 06:53:41;;;;;;;26.77;14.75;;;5.60;75.50;;;;;;4071246;29;20048;-78
2023/11/22 06:55:45;;;;;;;13.93;7.80;;;5.60;74.80;;;;;;4070622;29;20505;-78
2023/11/22 06:57:47;;;;;;;9.07;5.50;;;5.60;74.80;;;;;;4071290;29;20083;-78
2023/11/22 06:59:49;;;;;;;11.15;5.57;;;5.60;74.60;;;;;;4071303;29;20052;-79
2023/11/22 07:01:51;;;;;;;14.65;8.70;;;5.50;74.60;;;;;;4071514;29;20112;-78
2023/11/22 07:03:52;;;;;;;9.57;5.63;;;5.60;75.00;;;;;;4057279;29;20463;-79
2023/11/22 07:05:54;;;;;;;12.90;6.93;;;5.60;74.40;;;;;;4056393;29;20048;-79
2023/11/22 07:07:56;;;;;;;7.70;5.03;;;5.50;75.50;;;;;;4056126;29;20052;-77
2023/11/22 07:09:58;;;;;;;6.72;4.10;;;5.50;74.40;;;;;;4056077;29;20487;-79
2023/11/22 07:12:00;;;;;;;6.70;4.05;;;5.40;74.40;;;;;;4056165;29;20154;-77
2023/11/22 07:14:03;;;;;;;11.05;4.53;;;5.30;75.10;;;;;;4056039;29;20056;-78
2023/11/22 07:16:06;;;;;;;8.38;4.88;;;5.30;75.20;;;;;;4055916;29;20059;-77
2023/11/22 07:18:09;;;;;;;6.72;4.22;;;5.30;76.30;;;;;;4055970;29;20080;-77
2023/11/22 07:20:16;;;;;;;7.28;4.15;;;5.50;76.00;;;;;;4055652;29;20056;-77
2023/11/22 07:22:19;;;;;;;7.72;4.03;;;5.50;74.90;;;;;;4054773;29;20060;-76
2023/11/22 07:24:23;;;;;;;7.28;4.20;;;5.50;75.60;;;;;;4054836;29;20056;-77
2023/11/22 07:26:26;;;;;;;8.18;4.50;;;5.50;75.30;;;;;;4055650;29;20052;-79
2023/11/22 07:28:28;;;;;;;7.50;4.75;;;5.40;75.20;;;;;;4055236;29;20074;-78
2023/11/22 07:30:32;;;;;;;6.78;4.22;;;5.40;75.50;;;;;;4055715;29;20104;-76
2023/11/22 07:32:34;;;;;;;7.25;4.43;;;5.30;76.20;;;;;;4055852;29;20058;-77
2023/11/22 07:34:37;;;;;;;9.02;5.20;;;5.50;76.00;;;;;;4055342;29;20052;-78
2023/11/22 07:36:40;;;;;;;7.32;4.35;;;5.50;76.40;;;;;;4055223;29;20052;-77
2023/11/22 07:38:42;;;;;;;8.57;5.15;;;5.60;75.90;;;;;;4055827;29;20074;-76
2023/11/22 07:40:45;;;;;;;8.65;4.88;;;5.70;75.00;;;;;;4055942;29;20052;-78
2023/11/22 07:42:46;;;;;;;8.25;5.13;;;5.60;74.10;;;;;;4055332;29;20189;-78
2023/11/22 07:44:49;;;;;;;19.65;11.07;;;5.50;75.00;;;;;;4055249;29;20045;-78
2023/11/22 07:46:52;;;;;;;10.45;6.35;;;5.50;74.80;;;;;;4056549;29;20057;-78
2023/11/22 07:48:53;;;;;;;10.30;5.47;;;5.60;73.80;;;;;;4059911;29;20092;-78
2023/11/22 07:50:55;;;;;;;10.45;6.30;;;5.60;74.00;;;;;;4060635;29;20486;-76
2023/11/22 07:52:56;;;;;;;8.63;4.80;;;5.60;73.90;;;;;;4060021;29;20084;-75
2023/11/22 07:54:59;;;;;;;8.48;4.90;;;5.70;73.00;;;;;;4062027;29;20053;-76
2023/11/22 07:57:01;;;;;;;8.50;4.43;;;5.60;72.30;;;;;;4054687;29;20048;-80
2023/11/22 07:59:04;;;;;;;8.50;4.90;;;5.40;72.10;;;;;;4057080;29;20430;-74
2023/11/22 08:01:12;;;;;;;7.50;4.55;;;5.40;72.10;;;;;;4062847;29;20517;-76
2023/11/22 08:03:15;;;;;;;8.27;4.32;;;5.40;72.70;;;;;;4095125;29;20047;-76
2023/11/22 08:05:17;;;;;;;8.00;4.40;;;5.50;73.10;;;;;;4100192;29;20091;-76
2023/11/22 08:07:21;;;;;;;7.13;4.13;;;5.50;73.40;;;;;;4089540;29;20131;-76
2023/11/22 08:09:23;;;;;;;7.75;3.85;;;5.60;71.10;;;;;;4089399;29;20055;-80
2023/11/22 08:11:25;;;;;;;6.70;4.03;;;5.50;69.50;;;;;;4087230;29;20059;-76
2023/11/22 08:13:30;;;;;;;7.90;3.70;;;5.60;70.00;;;;;;4086510;29;20056;-77
2023/11/22 08:15:32;;;;;;;7.70;4.50;;;5.60;71.50;;;;;;4091350;29;20560;-75
2023/11/22 08:17:33;;;;;;;12.82;7.40;;;5.60;70.80;;;;;;4092283;29;20052;-78
2023/11/22 08:19:35;;;;;;;12.35;6.47;;;5.50;71.90;;;;;;4086619;29;20044;-77
2023/11/22 08:21:37;;;;;;;8.98;5.40;;;5.40;70.90;;;;;;4096293;29;20048;-74
2023/11/22 08:23:38;;;;;;;7.13;4.30;;;5.50;71.90;;;;;;4096450;29;20051;-79
2023/11/22 08:25:40;;;;;;;10.15;4.10;;;5.40;72.10;;;;;;4085995;29;20062;-79
2023/11/22 08:27:42;;;;;;;6.68;4.00;;;5.50;72.80;;;;;;4085805;29;20391;-79
2023/11/22 08:29:47;;;;;;;10.93;4.30;;;5.50;71.60;;;;;;4086202;29;20102;-79
2023/11/22 08:31:50;;;;;;;6.65;3.80;;;5.50;71.50;;;;;;4085512;29;20047;-77
2023/11/22 08:33:52;;;;;;;6.90;4.18;;;5.50;71.70;;;;;;4085085;29;20056;-79
2023/11/22 08:35:58;;;;;;;6.93;4.07;;;5.50;71.10;;;;;;4085055;29;20055;-79
2023/11/22 08:38:03;;;;;;;7.57;4.07;;;5.60;71.60;;;;;;4084643;29;20050;-78
2023/11/22 08:40:07;;;;;;;6.72;4.22;;;5.50;71.50;;;;;;4084666;29;20052;-78
2023/11/22 08:42:09;;;;;;;8.20;4.38;;;5.50;72.10;;;;;;4085004;29;20485;-78
2023/11/22 08:44:11;;;;;;;8.32;4.07;;;5.60;71.50;;;;;;4085142;29;20051;-79
2023/11/22 08:46:14;;;;;;;7.68;4.38;;;5.70;71.50;;;;;;4084983;29;20074;-79
2023/11/22 08:48:16;;;;;;;8.10;4.53;;;5.70;72.00;;;;;;4085273;29;20052;-78
2023/11/22 08:50:19;;;;;;;15.07;8.02;;;5.70;72.30;;;;;;4084656;29;20047;-78
2023/11/22 08:52:23;;;;;;;7.38;4.00;;;5.50;73.20;;;;;;4085295;29;20489;-78
2023/11/22 08:54:28;;;;;;;8.30;4.53;;;5.70;73.30;;;;;;4085234;29;20071;-76
2023/11/22 08:56:30;;;;;;;8.52;4.78;;;5.60;73.20;;;;;;4085371;29;20047;-79
2023/11/22 08:58:31;;;;;;;8.05;4.65;;;5.70;74.00;;;;;;4085048;29;20083;-76
2023/11/22 09:00:33;;;;;;;6.55;4.20;;;5.50;74.40;;;;;;4083925;29;20059;-78
2023/11/22 09:02:36;;;;;;;8.10;4.57;;;5.60;73.70;;;;;;4066094;29;20502;-79
2023/11/22 09:04:38;;;;;;;8.23;4.47;;;5.60;73.20;;;;;;4054405;29;20051;-77
2023/11/22 09:06:39;;;;;;;7.50;4.40;;;5.60;73.80;;;;;;4055396;29;20467;-78
2023/11/22 09:08:41;;;;;;;7.13;4.45;;;5.70;74.40;;;;;;4055567;29;20128;-72
2023/11/22 09:10:44;;;;;;;8.65;4.30;;;5.70;73.20;;;;;;4054849;29;20076;-73
2023/11/22 09:12:47;;;;;;;7.13;4.28;;;5.80;73.20;;;;;;4055404;29;20087;-80
2023/11/22 09:14:49;;;;;;;5.97;3.80;;;5.80;73.80;;;;;;4057358;29;20447;-77
2023/11/22 09:16:54;;;;;;;7.70;4.32;;;5.80;72.70;;;;;;4057107;29;20105;-79
2023/11/22 09:18:57;;;;;;;7.78;4.05;;;5.80;72.80;;;;;;4057699;29;20048;-74
2023/11/22 09:20:58;;;;;;;7.93;4.05;;;5.80;72.30;;;;;;4057263;29;20490;-79
2023/11/22 09:23:00;;;;;;;6.82;4.40;;;5.80;72.10;;;;;;4057163;29;20068;-77
2023/11/22 09:25:01;;;;;;;9.55;4.53;;;5.80;72.80;;;;;;4056839;29;20535;-77
2023/11/22 09:27:05;;;;;;;8.98;4.07;;;5.90;73.70;;;;;;4056600;29;20112;-80
2023/11/22 09:29:07;;;;;;;7.75;4.38;;;5.90;73.70;;;;;;4056923;29;20054;-78
2023/11/22 09:31:08;;;;;;;6.55;3.90;;;5.90;74.00;;;;;;4055996;29;20480;-78
2023/11/22 09:33:14;;;;;;;7.18;4.22;;;5.90;72.70;;;;;;4056599;29;20053;-80
2023/11/22 09:35:17;;;;;;;8.60;5.05;;;5.90;73.10;;;;;;4056760;29;20049;-79
2023/11/22 09:37:19;;;;;;;8.18;4.50;;;5.90;74.40;;;;;;4056317;29;20057;-79
2023/11/22 09:39:21;;;;;;;6.50;3.78;;;6.00;73.90;;;;;;4056179;29;20061;-80
2023/11/22 09:41:25;;;;;;;6.70;4.10;;;6.00;74.10;;;;;;4056335;29;20076;-78
2023/11/22 09:43:28;;;;;;;6.50;3.80;;;6.00;74.20;;;;;;4056277;29;20048;-80
2023/11/22 09:45:31;;;;;;;6.57;4.10;;;6.00;73.40;;;;;;4056244;29;20132;-78
2023/11/22 09:47:33;;;;;;;8.32;4.28;;;6.00;72.20;;;;;;4056279;29;20064;-80
2023/11/22 09:49:35;;;;;;;7.35;4.47;;;6.00;73.20;;;;;;4056252;29;20451;-80
2023/11/22 09:51:42;;;;;;;8.38;4.20;;;6.00;73.10;;;;;;4056352;29;20056;-78
2023/11/22 09:53:54;;;;;;;7.40;4.05;;;6.00;72.70;;;;;;4056068;29;20052;-79
2023/11/22 09:55:56;;;;;;;7.20;4.40;;;6.00;72.70;;;;;;4056342;29;20048;-78
2023/11/22 09:58:00;;;;;;;6.50;4.15;;;6.00;73.40;;;;;;4056333;29;20108;-78
2023/11/22 10:00:04;;;;;;;6.50;4.10;;;5.90;69.60;;;;;;4056409;29;20048;-79
2023/11/22 10:02:06;;;;;;;8.25;4.47;;;5.90;69.10;;;;;;4069559;29;20043;-80
2023/11/22 10:04:08;;;;;;;9.25;4.80;;;5.80;70.10;;;;;;4086717;29;20055;-79
2023/11/22 10:06:10;;;;;;;7.07;4.35;;;5.70;72.90;;;;;;4087032;29;20051;-79
2023/11/22 10:08:14;;;;;;;7.47;4.50;;;5.80;72.10;;;;;;4087165;29;20055;-81
2023/11/22 10:10:18;;;;;;;7.72;4.22;;;5.80;73.00;;;;;;4087099;29;20410;-80
2023/11/22 10:12:21;;;;;;;7.00;4.25;;;5.80;73.60;;;;;;4086979;29;20131;-79
2023/11/22 10:14:23;;;;;;;8.25;4.10;;;5.90;73.10;;;;;;4087021;29;20082;-77
2023/11/22 10:16:25;;;;;;;9.73;3.85;;;5.90;73.60;;;;;;4085880;29;20056;-81
2023/11/22 10:18:30;;;;;;;9.90;4.43;;;6.00;73.00;;;;;;4087448;29;20540;-79
2023/11/22 10:20:39;;;;;;;7.18;4.28;;;6.00;72.80;;;;;;4087258;29;20099;-76
2023/11/22 10:22:47;;;;;;;7.25;3.58;;;6.00;73.00;;;;;;4087416;29;20044;-77
2023/11/22 10:24:52;;;;;;;7.70;4.68;;;6.00;72.80;;;;;;4087151;29;20048;-77
2023/11/22 10:26:57;;;;;;;6.82;4.55;;;6.00;72.70;;;;;;4088112;29;20047;-80
2023/11/22 10:29:00;;;;;;;15.48;8.30;;;5.90;73.40;;;;;;4086921;29;20056;-77
2023/11/22 10:31:01;;;;;;;13.52;6.53;;;5.90;73.00;;;;;;4087046;29;20052;-75
2023/11/22 10:33:04;;;;;;;9.38;4.72;;;5.90;73.10;;;;;;4086691;29;20064;-79
2023/11/22 10:35:08;;;;;;;8.77;5.10;;;5.90;73.40;;;;;;4086667;29;20055;-78
2023/11/22 10:37:10;;;;;;;9.73;5.45;;;5.90;73.50;;;;;;4086533;29;20091;-79
2023/11/22 10:39:16;;;;;;;10.13;4.68;;;5.70;74.30;;;;;;4086750;29;20055;-79
2023/11/22 10:41:22;;;;;;;9.27;4.60;;;5.60;73.90;;;;;;4086973;29;20054;-79
2023/11/22 10:43:27;;;;;;;8.50;4.93;;;5.70;73.40;;;;;;4086609;29;20122;-76
2023/11/22 10:45:31;;;;;;;7.82;5.00;;;5.70;73.60;;;;;;4086686;29;20090;-79
2023/11/22 10:47:38;;;;;;;8.52;4.93;;;5.50;74.50;;;;;;4088109;29;20060;-78
2023/11/22 10:49:41;;;;;;;10.77;5.43;;;5.40;74.90;;;;;;4086669;29;20422;-77
2023/11/22 10:51:51;;;;;;;10.75;5.65;;;5.30;75.30;;;;;;4086828;29;20059;-79
2023/11/22 10:53:54;;;;;;;8.95;6.00;;;5.50;75.20;;;;;;4086747;29;20052;-77
2023/11/22 10:56:06;;;;;;;10.18;6.32;;;5.40;75.30;;;;;;4086463;29;20060;-78
2023/11/22 10:58:11;;;;;;;8.90;6.00;;;5.30;75.30;;;;;;4086225;29;20175;-81
2023/11/22 11:00:15;;;;;;;9.68;6.10;;;5.50;76.30;;;;;;4086427;29;20047;-76
2023/11/22 11:02:19;;;;;;;11.23;6.20;;;5.60;76.90;;;;;;4071436;29;20052;-79
2023/11/22 11:04:26;;;;;;;9.43;6.07;;;5.70;76.40;;;;;;4070869;29;20112;-80
2023/11/22 11:06:34;;;;;;;10.05;6.18;;;5.50;74.90;;;;;;4073484;29;20052;-76
2023/11/22 11:08:39;;;;;;;10.75;6.45;;;5.50;75.40;;;;;;4073550;29;20045;-81
2023/11/22 11:10:42;;;;;;;9.05;5.20;;;5.50;74.40;;;;;;4071623;29;20105;-77
2023/11/22 11:12:45;;;;;;;9.85;6.10;;;5.30;74.10;;;;;;4071776;29;20095;-78
2023/11/22 11:14:49;;;;;;;8.82;5.80;;;5.30;74.10;;;;;;4078342;29;20056;-76
2023/11/22 11:16:54;;;;;;;9.35;5.50;;;5.30;74.60;;;;;;4054320;29;20061;-73
2023/11/22 11:18:56;;;;;;;10.15;6.20;;;5.40;74.30;;;;;;4053322;29;20570;-76
2023/11/22 11:20:59;;;;;;;9.73;5.97;;;5.40;74.20;;;;;;4069988;29;20056;-76
2023/11/22 11:23:05;;;;;;;10.60;6.40;;;5.50;74.40;;;;;;4071454;29;20057;-77
2023/11/22 11:25:08;;;;;;;10.30;6.57;;;5.30;73.10;;;;;;4072018;29;20055;-76
2023/11/22 11:27:11;;;;;;;11.13;5.60;;;5.30;74.80;;;;;;4071044;29;20044;-79
2023/11/22 11:29:30;;;;;;;10.18;6.05;;;5.30;74.90;;;;;;4071982;29;20101;-76
2023/11/22 11:31:39;;;;;;;9.93;5.55;;;5.30;75.30;;;;;;4063281;29;20056;-76
2023/11/22 11:33:56;;;;;;;11.88;5.93;;;5.40;74.60;;;;;;4063594;29;20060;-76
2023/11/22 11:35:57;;;;;;;10.32;5.82;;;5.30;74.30;;;;;;4052533;29;20199;-75
2023/11/22 11:38:01;;;;;;;9.23;5.70;;;5.20;74.70;;;;;;4052050;29;20091;-75
2023/11/22 11:40:25;;;;;;;7.97;5.25;;;5.30;74.40;;;;;;4050796;29;20048;-77
2023/11/22 11:42:27;;;;;;;9.85;5.75;;;5.30;74.10;;;;;;4052507;29;20475;-74
2023/11/22 11:44:29;;;;;;;8.88;6.00;;;5.40;73.90;;;;;;4052637;29;20052;-74
2023/11/22 11:46:34;;;;;;;9.63;5.68;;;5.40;73.70;;;;;;4053282;29;20107;-77
2023/11/22 11:48:36;;;;;;;10.52;6.50;;;5.30;74.00;;;;;;4053663;29;20060;-77
2023/11/22 11:50:38;;;;;;;10.65;6.18;;;5.20;73.90;;;;;;4053545;29;20056;-80
2023/11/22 11:52:40;;;;;;;9.52;6.20;;;5.30;74.10;;;;;;4052529;29;20056;-75
2023/11/22 11:54:42;;;;;;;9.73;5.57;;;5.50;74.00;;;;;;4052882;29;20076;-74
2023/11/22 11:56:44;;;;;;;8.93;5.43;;;5.50;73.50;;;;;;4053304;29;20441;-78
2023/11/22 11:58:49;;;;;;;9.82;5.70;;;5.50;73.70;;;;;;4052637;29;20149;-74
2023/11/22 12:00:52;;;;;;;9.45;5.50;;;5.60;73.20;;;;;;4055230;29;20060;-76
2023/11/22 12:02:55;;;;;;;9.68;5.72;;;5.60;73.30;;;;;;4061416;29;20056;-74
2023/11/22 12:04:57;;;;;;;11.23;6.57;;;5.60;73.20;;;;;;4052123;29;20056;-75
2023/11/22 12:06:59;;;;;;;9.27;5.70;;;5.30;73.00;;;;;;4052053;29;20060;-75
2023/11/22 12:09:03;;;;;;;9.02;5.70;;;5.30;73.50;;;;;;4052142;29;20056;-78
2023/11/22 12:11:06;;;;;;;9.18;5.93;;;5.50;73.80;;;;;;4051625;29;20064;-74
2023/11/22 12:13:08;;;;;;;9.35;6.03;;;5.60;73.40;;;;;;4052291;29;20144;-78
2023/11/22 12:15:11;;;;;;;10.23;5.90;;;5.60;72.40;;;;;;4052231;29;20052;-77
2023/11/22 12:17:14;;;;;;;12.80;7.45;;;5.70;72.80;;;;;;4052650;29;20549;-76
2023/11/22 12:19:25;;;;;;;14.23;7.63;;;5.60;72.00;;;;;;4052528;29;20056;-77
2023/11/22 12:21:28;;;;;;;16.70;8.55;;;5.70;73.00;;;;;;4053059;29;20048;-75
2023/11/22 12:23:30;;;;;;;9.57;5.78;;;5.70;72.20;;;;;;4054350;29;20061;-76
2023/11/22 12:25:32;;;;;;;9.85;5.45;;;5.40;72.40;;;;;;4059262;29;20084;-78
2023/11/22 12:27:33;;;;;;;8.77;5.43;;;5.40;73.20;;;;;;4058590;29;20498;-76
2023/11/22 12:29:37;;;;;;;8.80;5.60;;;5.50;73.10;;;;;;4056691;29;20061;-74
2023/11/22 12:31:46;;;;;;;11.15;5.28;;;5.60;72.40;;;;;;4051621;29;20502;-78
2023/11/22 12:33:48;;;;;;;7.95;5.07;;;5.50;72.10;;;;;;4051611;29;20506;-82
2023/11/22 12:35:52;;;;;;;8.43;5.43;;;5.30;72.50;;;;;;4050460;29;20053;-80
2023/11/22 12:37:54;;;;;;;10.82;6.10;;;5.40;72.70;;;;;;4052432;29;20094;-78
2023/11/22 12:39:56;;;;;;;11.13;6.20;;;5.30;73.20;;;;;;4050196;29;20132;-77
2023/11/22 12:41:58;;;;;;;8.10;5.30;;;5.40;72.30;;;;;;4051600;29;20048;-78
2023/11/22 12:44:05;;;;;;;8.65;5.53;;;5.40;72.80;;;;;;4051925;29;20052;-75
2023/11/22 12:46:11;;;;;;;9.35;5.30;;;5.50;71.70;;;;;;4051723;29;20071;-80
2023/11/22 12:48:23;;;;;;;;;;;5.30;72.30;;;;;;4051670;29;20080;-79
2023/11/22 12:50:33;;;;;;;9.27;5.68;;;5.30;73.10;;;;;;4052166;29;19934;-78
2023/11/22 12:52:37;;;;;;;9.10;5.30;;;5.40;74.00;;;;;;4051855;29;20053;-79
2023/11/22 12:54:39;;;;;;;11.13;5.85;;;5.40;73.30;;;;;;4051802;29;20175;-82
2023/11/22 12:56:42;;;;;;;10.07;5.55;;;5.30;72.90;;;;;;4051250;29;20088;-79
2023/11/22 12:58:44;;;;;;;8.00;5.70;;;5.30;73.50;;;;;;4051733;29;20052;-80
2023/11/22 13:00:46;;;;;;;8.68;5.63;;;5.40;72.10;;;;;;4051370;29;20088;-78
2023/11/22 13:02:48;;;;;;;10.63;5.72;;;5.50;71.80;;;;;;4063381;29;20398;-81
2023/11/22 13:04:50;;;;;;;10.43;5.70;;;5.60;72.30;;;;;;4082828;29;20068;-79
2023/11/22 13:06:53;;;;;;;6.45;4.30;;;5.50;71.40;;;;;;4082548;29;20066;-80
2023/11/22 13:08:56;;;;;;;7.78;4.78;;;5.50;71.40;;;;;;4083228;29;20122;-79
2023/11/22 13:10:59;;;;;;;7.65;4.90;;;5.50;70.50;;;;;;4082859;29;20047;-74
2023/11/22 13:13:01;;;;;;;9.90;5.40;;;5.50;70.60;;;;;;4083258;29;20456;-76
2023/11/22 13:15:04;;;;;;;8.15;4.80;;;5.30;69.90;;;;;;4083177;29;20511;-78
2023/11/22 13:17:06;;;;;;;8.45;4.82;;;5.50;70.90;;;;;;4082450;29;20465;-77
2023/11/22 13:19:09;;;;;;;8.43;5.05;;;5.40;70.30;;;;;;4065883;29;20052;-76
2023/11/22 13:21:10;;;;;;;7.60;4.82;;;5.40;71.10;;;;;;4083000;29;20135;-75
2023/11/22 13:23:13;;;;;;;8.35;4.55;;;5.50;70.30;;;;;;4082765;29;20047;-76
2023/11/22 13:25:18;;;;;;;9.10;5.15;;;5.60;71.10;;;;;;4082795;29;20060;-76
2023/11/22 13:27:20;;;;;;;8.65;5.22;;;5.60;71.90;;;;;;4082356;29;20561;-74
2023/11/22 13:29:23;;;;;;;9.02;5.18;;;5.30;71.60;;;;;;4083343;29;20051;-73
2023/11/22 13:31:25;;;;;;;8.07;5.18;;;5.50;71.50;;;;;;4082183;29;20421;-76
2023/11/22 13:33:28;;;;;;;11.02;5.50;;;5.60;70.70;;;;;;4082524;29;20052;-77
2023/11/22 13:35:31;;;;;;;9.35;5.18;;;5.60;69.90;;;;;;4065818;29;20177;-73
2023/11/22 13:37:33;;;;;;;8.32;5.40;;;5.60;70.90;;;;;;4082891;29;20098;-76
2023/11/22 13:39:35;;;;;;;10.93;5.93;;;5.70;70.60;;;;;;4080895;29;20397;-75
2023/11/22 13:41:39;;;;;;;9.13;5.55;;;5.60;70.10;;;;;;4082824;29;20056;-73
2023/11/22 13:43:41;;;;;;;10.27;5.50;;;5.50;71.30;;;;;;4082992;29;20056;-77
2023/11/22 13:45:42;;;;;;;8.52;5.38;;;5.50;71.70;;;;;;4083013;29;20055;-73
2023/11/22 13:47:44;;;;;;;8.75;5.35;;;5.60;70.90;;;;;;4082834;29;20063;-76
2023/11/22 13:49:46;;;;;;;8.48;5.20;;;5.60;69.90;;;;;;4082886;29;20059;-78
2023/11/22 13:51:48;;;;;;;9.65;5.53;;;5.60;69.80;;;;;;4082386;29;20055;-73
2023/11/22 13:53:53;;;;;;;8.63;5.65;;;5.60;70.60;;;;;;4082538;29;20051;-75
2023/11/22 13:55:55;;;;;;;9.55;5.85;;;5.60;71.00;;;;;;4083089;29;20580;-75
2023/11/22 13:58:00;;;;;;;9.07;5.82;;;5.70;71.10;;;;;;4082833;29;20055;-75
2023/11/22 14:00:02;;;;;;;8.37;5.70;;;5.70;71.20;;;;;;4086131;29;20086;-77
2023/11/22 14:02:04;;;;;;;9.70;5.88;;;5.70;71.20;;;;;;4072384;29;20099;-75
2023/11/22 14:04:07;;;;;;;9.02;5.75;;;5.70;71.10;;;;;;4054358;29;20061;-81
2023/11/22 14:06:09;;;;;;;9.18;5.40;;;5.60;70.30;;;;;;4054417;29;20487;-76
2023/11/22 14:08:11;;;;;;;11.10;6.07;;;5.60;70.90;;;;;;4054076;29;20060;-76
2023/11/22 14:10:16;;;;;;;9.32;5.32;;;5.60;71.60;;;;;;4054458;29;20478;-76
2023/11/22 14:12:18;;;;;;;8.90;5.47;;;5.60;71.40;;;;;;4053929;29;20143;-76
2023/11/22 14:14:21;;;;;;;8.65;5.65;;;5.60;71.70;;;;;;4053675;29;20061;-77
2023/11/22 14:16:23;;;;;;;9.35;5.75;;;5.70;71.10;;;;;;4053529;29;20400;-75
2023/11/22 14:18:25;;;;;;;9.23;5.10;;;5.70;70.40;;;;;;4061279;29;20052;-75
2023/11/22 14:20:29;;;;;;;10.75;6.03;;;5.60;69.90;;;;;;4055971;29;20052;-76
2023/11/22 14:22:31;;;;;;;8.68;5.30;;;5.60;68.40;;;;;;4058157;29;20380;-79
2023/11/22 14:24:36;;;;;;;9.80;5.90;;;5.60;67.70;;;;;;4053549;29;20580;-74
2023/11/22 14:26:38;;;;;;;9.30;5.63;;;5.60;67.90;;;;;;4053778;29;20052;-75
2023/11/22 14:28:41;;;;;;;9.75;5.35;;;5.60;68.20;;;;;;4055385;29;20052;-75
2023/11/22 14:30:45;;;;;;;8.35;5.30;;;5.60;68.20;;;;;;4054797;29;20060;-76
2023/11/22 14:32:47;;;;;;;8.43;5.35;;;5.60;69.30;;;;;;4053467;29;20048;-76
2023/11/22 14:34:48;;;;;;;8.55;5.10;;;5.60;69.30;;;;;;4053064;29;20108;-74
2023/11/22 14:36:50;;;;;;;10.40;5.57;;;5.60;69.20;;;;;;4053557;29;20076;-76
2023/11/22 14:38:54;;;;;;;8.30;5.20;;;5.60;68.90;;;;;;4051929;29;20111;-74
2023/11/22 14:40:56;;;;;;;8.13;5.03;;;5.60;68.70;;;;;;4053334;29;20462;-78
2023/11/22 14:43:00;;;;;;;9.98;5.50;;;5.50;68.50;;;;;;4053501;29;20049;-76
2023/11/22 14:45:01;;;;;;;8.40;5.13;;;5.50;68.10;;;;;;4053066;29;20136;-77
2023/11/22 14:47:06;;;;;;;8.70;5.13;;;5.60;68.80;;;;;;4053303;29;20102;-77
2023/11/22 14:49:08;;;;;;;9.77;5.65;;;5.60;69.00;;;;;;4053420;29;20104;-77
2023/11/22 14:51:10;;;;;;;10.00;5.55;;;5.50;68.50;;;;;;4053133;29;20056;-77
2023/11/22 14:53:12;;;;;;;8.77;5.63;;;5.50;69.30;;;;;;4053330;29;20048;-79
2023/11/22 14:55:15;;;;;;;9.80;5.10;;;5.50;69.40;;;;;;4052902;29;20515;-77
2023/11/22 14:57:17;;;;;;;8.43;5.32;;;5.60;70.00;;;;;;4053171;29;20056;-78
2023/11/22 14:59:19;;;;;;;8.43;4.88;;;5.40;69.90;;;;;;4053217;29;20083;-78
2023/11/22 15:01:22;;;;;;;12.55;5.75;;;5.40;69.30;;;;;;4060014;29;20439;-78
2023/11/22 15:03:27;;;;;;;9.48;5.60;;;5.50;69.30;;;;;;4079142;29;20948;-78
2023/11/22 15:05:29;;;;;;;9.45;5.55;;;5.50;68.50;;;;;;4084579;29;20063;-75
2023/11/22 15:07:31;;;;;;;10.50;5.70;;;5.50;68.50;;;;;;4084398;29;20051;-76
2023/11/22 15:09:33;;;;;;;9.05;5.53;;;5.50;69.10;;;;;;4074432;29;20491;-76
2023/11/22 15:11:36;;;;;;;10.90;6.50;;;5.50;69.60;;;;;;4057206;29;20108;-78
2023/11/22 15:13:38;;;;;;;11.75;7.05;;;5.40;69.80;;;;;;4068430;29;20052;-80
2023/11/22 15:15:39;;;;;;;11.07;6.68;;;5.30;69.80;;;;;;4068606;29;20608;-76
2023/11/22 15:17:41;;;;;;;9.40;5.95;;;5.10;70.00;;;;;;4069432;29;20450;-79
2023/11/22 15:19:45;;;;;;;9.82;5.93;;;5.30;70.60;;;;;;4069037;29;20398;-76
2023/11/22 15:21:47;;;;;;;9.25;5.43;;;5.40;69.70;;;;;;4059026;29;20053;-79
2023/11/22 15:23:49;;;;;;;8.63;5.45;;;5.40;69.30;;;;;;4052590;29;20049;-80
2023/11/22 15:25:53;;;;;;;9.20;5.50;;;5.50;69.40;;;;;;4052823;29;20052;-76
2023/11/22 15:27:54;;;;;;;10.05;5.85;;;5.50;69.20;;;;;;4052686;29;20068;-79
2023/11/22 15:29:56;;;;;;;9.07;5.38;;;5.50;69.00;;;;;;4053391;29;20055;-79
2023/11/22 15:31:59;;;;;;;10.65;5.10;;;5.60;69.00;;;;;;4053507;29;20053;-77
2023/11/22 15:34:01;;;;;;;9.38;5.32;;;5.60;68.80;;;;;;4069853;29;20055;-77
2023/11/22 15:36:07;;;;;;;9.10;5.10;;;5.60;67.80;;;;;;4071012;29;20351;-78
2023/11/22 15:38:09;;;;;;;8.05;4.82;;;5.60;68.70;;;;;;4072265;29;20111;-75
2023/11/22 15:40:13;;;;;;;10.27;5.47;;;5.50;69.10;;;;;;4066715;29;20111;-76
2023/11/22 15:42:16;;;;;;;8.32;5.18;;;5.60;69.60;;;;;;4067317;29;20076;-77
2023/11/22 15:44:17;;;;;;;8.60;5.10;;;5.50;68.30;;;;;;4066794;29;20112;-78
2023/11/22 15:46:24;;;;;;;8.20;5.18;;;5.60;68.80;;;;;;4070171;29;20052;-75
2023/11/22 15:48:26;;;;;;;9.82;5.47;;;5.50;68.60;;;;;;4069718;29;20060;-80
2023/11/22 15:50:28;;;;;;;11.18;6.85;;;5.30;68.60;;;;;;4068834;29;20070;-77
2023/11/22 15:52:31;;;;;;;12.05;6.22;;;5.40;70.00;;;;;;4070882;29;20084;-76
2023/11/22 15:54:33;;;;;;;11.25;5.93;;;5.50;68.60;;;;;;4070015;29;20056;-74
2023/11/22 15:56:35;;;;;;;9.85;5.15;;;5.50;67.70;;;;;;4071021;29;20056;-77
2023/11/22 15:58:36;;;;;;;9.98;6.38;;;5.50;67.50;;;;;;4071153;29;20048;-79
2023/11/22 16:00:38;;;;;;;9.40;5.50;;;5.40;66.70;;;;;;4066176;29;20052;-79
2023/11/22 16:02:41;;;;;;;8.55;5.38;;;5.50;67.60;;;;;;4052268;29;20107;-80
2023/11/22 16:04:42;;;;;;;7.90;5.38;;;5.50;67.00;;;;;;4051658;29;20055;-77
2023/11/22 16:06:46;;;;;;;8.50;5.45;;;5.50;67.20;;;;;;4052130;29;20455;-77
2023/11/22 16:08:49;;;;;;;9.48;5.53;;;5.50;66.70;;;;;;4050601;29;20488;-79
2023/11/22 16:10:51;;;;;;;8.00;4.97;;;5.50;66.00;;;;;;4051663;29;20057;-80
2023/11/22 16:12:53;;;;;;;7.97;5.03;;;5.50;66.30;;;;;;4052182;29;20084;-81
2023/11/22 16:14:55;;;;;;;10.00;5.45;;;5.50;66.10;;;;;;4051956;29;20056;-79
2023/11/22 16:16:56;;;;;;;8.80;5.22;;;5.60;66.20;;;;;;4052000;29;20472;-79
2023/11/22 16:18:58;;;;;;;9.85;6.10;;;5.40;66.10;;;;;;4051783;29;20052;-79
2023/11/22 16:21:00;;;;;;;8.55;5.72;;;5.50;66.60;;;;;;4051109;29;20055;-80
2023/11/22 16:23:02;;;;;;;11.45;5.80;;;5.40;66.50;;;;;;4050072;29;20044;-79
2023/11/22 16:25:05;;;;;;;8.00;4.85;;;5.50;67.20;;;;;;4043731;29;20163;-78
2023/11/22 16:27:08;;;;;;;7.80;5.10;;;5.30;66.50;;;;;;4051777;29;20045;-75
2023/11/22 16:29:09;;;;;;;9.38;5.40;;;5.20;67.60;;;;;;4051682;29;20056;-75
2023/11/22 16:31:13;;;;;;;10.20;5.97;;;5.30;67.20;;;;;;4051828;29;20049;-75
2023/11/22 16:33:16;;;;;;;9.23;5.28;;;5.30;65.90;;;;;;4050990;29;20104;-76
2023/11/22 16:35:18;;;;;;;9.20;5.82;;;5.20;66.40;;;;;;4052010;29;20095;-76
2023/11/22 16:37:19;;;;;;;9.40;5.25;;;5.30;67.00;;;;;;4051592;29;20060;-78
2023/11/22 16:39:22;;;;;;;8.63;5.28;;;5.30;67.30;;;;;;4049573;29;20058;-80
2023/11/22 16:41:26;;;;;;;9.00;5.25;;;5.30;67.20;;;;;;4051292;29;20056;-78
2023/11/22 16:43:28;;;;;;;7.85;5.32;;;5.30;67.00;;;;;;4050348;29;20072;-79
2023/11/22 16:45:30;;;;;;;7.75;5.05;;;5.30;67.60;;;;;;4038650;29;20052;-77
2023/11/22 16:47:32;;;;;;;9.15;4.97;;;5.40;67.90;;;;;;4034997;29;20095;-81